sensor_id;sensor_type;location;lat;lon;timestamp;pressure;altitude;pressure_sealevel;temperature;humidity
83363;BME280;73275;50.882;5.984;2024-01-11T00:02:05;101852.47;;;-5.21;78.43
83363;BME280;73275;50.882;5.984;2024-01-11T00:04:30;101844.47;;;-5.20;78.45
83363;BME280;73275;50.882;5.984;2024-01-11T00:06:55;101849.97;;;-5.16;78.46
83363;BME280;73275;50.882;5.984;2024-01-11T00:09:21;101845.91;;;-5.12;78.10
83363;BME280;73275;50.882;5.984;2024-01-11T00:11:46;101847.66;;;-5.01;77.90
83363;BME280;73275;50.882;5.984;2024-01-11T00:14:12;101855.47;;;-5.01;78.18
83363;BME280;73275;50.882;5.984;2024-01-11T00:16:37;101857.84;;;-5.00;77.43
83363;BME280;73275;50.882;5.984;2024-01-11T00:19:02;101853.09;;;-5.03;77.79
83363;BME280;73275;50.882;5.984;2024-01-11T00:21:28;101857.41;;;-5.08;78.39
83363;BME280;73275;50.882;5.984;2024-01-11T00:23:53;101858.06;;;-5.01;78.09
83363;BME280;73275;50.882;5.984;2024-01-11T00:26:19;101863.06;;;-5.11;77.45
83363;BME280;73275;50.882;5.984;2024-01-11T00:28:44;101859.00;;;-5.07;78.05
83363;BME280;73275;50.882;5.984;2024-01-11T00:31:10;101853.69;;;-5.12;78.39
83363;BME280;73275;50.882;5.984;2024-01-11T00:33:36;101854.72;;;-5.13;78.18
83363;BME280;73275;50.882;5.984;2024-01-11T00:36:01;101860.47;;;-5.11;77.71
83363;BME280;73275;50.882;5.984;2024-01-11T00:38:27;101862.03;;;-5.10;78.19
83363;BME280;73275;50.882;5.984;2024-01-11T00:40:52;101872.44;;;-5.10;78.11
83363;BME280;73275;50.882;5.984;2024-01-11T00:43:18;101873.94;;;-5.14;77.52
83363;BME280;73275;50.882;5.984;2024-01-11T00:45:45;101873.47;;;-5.11;78.23
83363;BME280;73275;50.882;5.984;2024-01-11T00:48:11;101874.94;;;-5.15;78.25
83363;BME280;73275;50.882;5.984;2024-01-11T00:50:37;101873.72;;;-5.24;78.66
83363;BME280;73275;50.882;5.984;2024-01-11T00:53:02;101870.66;;;-5.21;78.80
83363;BME280;73275;50.882;5.984;2024-01-11T00:55:29;101870.97;;;-5.18;78.73
83363;BME280;73275;50.882;5.984;2024-01-11T00:57:54;101865.25;;;-5.20;78.26
83363;BME280;73275;50.882;5.984;2024-01-11T01:00:19;101863.19;;;-5.18;78.50
83363;BME280;73275;50.882;5.984;2024-01-11T01:02:45;101870.16;;;-5.07;78.76
83363;BME280;73275;50.882;5.984;2024-01-11T01:05:12;101866.50;;;-4.94;78.25
83363;BME280;73275;50.882;5.984;2024-01-11T01:07:37;101867.19;;;-4.99;78.02
83363;BME280;73275;50.882;5.984;2024-01-11T01:10:03;101866.09;;;-5.03;78.34
83363;BME280;73275;50.882;5.984;2024-01-11T01:12:28;101867.34;;;-5.05;78.11
83363;BME280;73275;50.882;5.984;2024-01-11T01:14:54;101870.44;;;-5.20;78.20
83363;BME280;73275;50.882;5.984;2024-01-11T01:17:22;101874.59;;;-5.19;78.30
83363;BME280;73275;50.882;5.984;2024-01-11T01:19:47;101885.78;;;-5.18;78.77
83363;BME280;73275;50.882;5.984;2024-01-11T01:22:13;101883.78;;;-5.28;78.77
83363;BME280;73275;50.882;5.984;2024-01-11T01:24:38;101882.88;;;-5.22;79.11
83363;BME280;73275;50.882;5.984;2024-01-11T01:27:04;101873.25;;;-5.21;78.68
83363;BME280;73275;50.882;5.984;2024-01-11T01:29:29;101873.69;;;-5.13;78.57
83363;BME280;73275;50.882;5.984;2024-01-11T01:31:55;101873.44;;;-5.00;78.48
83363;BME280;73275;50.882;5.984;2024-01-11T01:34:21;101876.22;;;-4.90;78.37
83363;BME280;73275;50.882;5.984;2024-01-11T01:36:46;101883.84;;;-4.83;77.95
83363;BME280;73275;50.882;5.984;2024-01-11T01:39:11;101886.63;;;-4.90;78.34
83363;BME280;73275;50.882;5.984;2024-01-11T01:41:37;101888.50;;;-4.85;77.86
83363;BME280;73275;50.882;5.984;2024-01-11T01:44:02;101883.75;;;-4.88;77.80
83363;BME280;73275;50.882;5.984;2024-01-11T01:46:28;101896.91;;;-4.95;78.19
83363;BME280;73275;50.882;5.984;2024-01-11T01:48:56;101896.34;;;-4.97;78.42
83363;BME280;73275;50.882;5.984;2024-01-11T01:51:22;101894.00;;;-4.98;78.93
83363;BME280;73275;50.882;5.984;2024-01-11T01:53:50;101893.50;;;-4.95;78.67
83363;BME280;73275;50.882;5.984;2024-01-11T01:56:19;101900.53;;;-4.96;78.73
83363;BME280;73275;50.882;5.984;2024-01-11T01:58:44;101904.94;;;-5.08;78.23
83363;BME280;73275;50.882;5.984;2024-01-11T02:01:11;101902.75;;;-5.27;78.92
83363;BME280;73275;50.882;5.984;2024-01-11T02:03:38;101910.09;;;-5.24;79.82
83363;BME280;73275;50.882;5.984;2024-01-11T02:06:05;101909.06;;;-5.23;79.99
83363;BME280;73275;50.882;5.984;2024-01-11T02:08:31;101915.50;;;-5.26;79.61
83363;BME280;73275;50.882;5.984;2024-01-11T02:10:59;101910.22;;;-5.31;79.34
83363;BME280;73275;50.882;5.984;2024-01-11T02:13:25;101921.50;;;-5.37;79.82
83363;BME280;73275;50.882;5.984;2024-01-11T02:15:50;101917.09;;;-5.36;79.94
83363;BME280;73275;50.882;5.984;2024-01-11T02:18:16;101908.63;;;-5.32;80.15
83363;BME280;73275;50.882;5.984;2024-01-11T02:20:42;101907.41;;;-5.29;79.45
83363;BME280;73275;50.882;5.984;2024-01-11T02:23:14;101911.34;;;-5.27;80.05
83363;BME280;73275;50.882;5.984;2024-01-11T02:25:42;101912.38;;;-5.28;79.94
83363;BME280;73275;50.882;5.984;2024-01-11T02:28:07;101913.84;;;-5.32;80.25
83363;BME280;73275;50.882;5.984;2024-01-11T02:33:19;101907.19;;;-5.39;80.51
83363;BME280;73275;50.882;5.984;2024-01-11T02:35:48;101904.91;;;-5.36;79.95
83363;BME280;73275;50.882;5.984;2024-01-11T02:38:23;101905.81;;;-5.30;80.08
83363;BME280;73275;50.882;5.984;2024-01-11T02:40:53;101906.81;;;-5.31;79.93
83363;BME280;73275;50.882;5.984;2024-01-11T02:43:30;101901.75;;;-5.38;80.20
83363;BME280;73275;50.882;5.984;2024-01-11T02:46:10;101897.13;;;-5.36;80.33
83363;BME280;73275;50.882;5.984;2024-01-11T02:48:41;101899.94;;;-5.37;80.30
83363;BME280;73275;50.882;5.984;2024-01-11T02:51:25;101902.19;;;-5.29;80.27
83363;BME280;73275;50.882;5.984;2024-01-11T02:54:21;101903.22;;;-5.30;80.23
83363;BME280;73275;50.882;5.984;2024-01-11T02:56:49;101893.81;;;-5.31;80.04
83363;BME280;73275;50.882;5.984;2024-01-11T02:59:27;101895.19;;;-5.29;80.38
83363;BME280;73275;50.882;5.984;2024-01-11T03:02:08;101895.19;;;-5.29;80.34
83363;BME280;73275;50.882;5.984;2024-01-11T03:04:43;101893.97;;;-5.38;80.41
83363;BME280;73275;50.882;5.984;2024-01-11T03:07:27;101889.22;;;-5.41;80.29
83363;BME280;73275;50.882;5.984;2024-01-11T03:10:07;101883.81;;;-5.39;80.35
83363;BME280;73275;50.882;5.984;2024-01-11T03:12:35;101881.31;;;-5.34;80.48
83363;BME280;73275;50.882;5.984;2024-01-11T03:15:16;101875.09;;;-5.33;80.11
83363;BME280;73275;50.882;5.984;2024-01-11T03:17:47;101870.34;;;-5.36;79.45
83363;BME280;73275;50.882;5.984;2024-01-11T03:22:59;101881.53;;;-5.36;80.36
83363;BME280;73275;50.882;5.984;2024-01-11T03:25:47;101884.69;;;-5.34;81.13
83363;BME280;73275;50.882;5.984;2024-01-11T03:28:23;101886.50;;;-5.34;80.85
83363;BME280;73275;50.882;5.984;2024-01-11T03:30:54;101875.00;;;-5.38;80.32
83363;BME280;73275;50.882;5.984;2024-01-11T03:33:25;101876.94;;;-5.45;80.96
83363;BME280;73275;50.882;5.984;2024-01-11T03:35:53;101878.28;;;-5.54;81.63
83363;BME280;73275;50.882;5.984;2024-01-11T03:38:30;101871.19;;;-5.59;81.15
83363;BME280;73275;50.882;5.984;2024-01-11T03:41:17;101878.28;;;-5.54;80.86
83363;BME280;73275;50.882;5.984;2024-01-11T03:43:46;101871.28;;;-5.42;80.66
83363;BME280;73275;50.882;5.984;2024-01-11T03:46:17;101867.56;;;-5.46;80.58
83363;BME280;73275;50.882;5.984;2024-01-11T03:48:54;101865.88;;;-5.52;80.55
83363;BME280;73275;50.882;5.984;2024-01-11T03:51:29;101867.81;;;-5.59;81.02
83363;BME280;73275;50.882;5.984;2024-01-11T03:54:05;101886.88;;;-5.77;81.65
83363;BME280;73275;50.882;5.984;2024-01-11T03:56:31;101882.63;;;-5.83;82.02
83363;BME280;73275;50.882;5.984;2024-01-11T03:59:00;101886.22;;;-5.95;82.72
83363;BME280;73275;50.882;5.984;2024-01-11T04:01:28;101885.56;;;-6.02;83.22
83363;BME280;73275;50.882;5.984;2024-01-11T04:03:57;101886.38;;;-6.02;82.51
83363;BME280;73275;50.882;5.984;2024-01-11T04:06:25;101888.84;;;-6.07;82.24
83363;BME280;73275;50.882;5.984;2024-01-11T04:08:55;101889.06;;;-6.08;82.38
83363;BME280;73275;50.882;5.984;2024-01-11T04:11:23;101901.56;;;-6.05;82.59
83363;BME280;73275;50.882;5.984;2024-01-11T04:13:54;101900.97;;;-6.19;82.94
83363;BME280;73275;50.882;5.984;2024-01-11T04:16:20;101896.94;;;-6.26;83.54
83363;BME280;73275;50.882;5.984;2024-01-11T04:18:49;101901.75;;;-6.41;83.97
83363;BME280;73275;50.882;5.984;2024-01-11T04:21:25;101916.56;;;-6.48;84.45
83363;BME280;73275;50.882;5.984;2024-01-11T04:23:56;101909.94;;;-6.56;84.44
83363;BME280;73275;50.882;5.984;2024-01-11T04:26:34;101905.38;;;-6.60;84.55
83363;BME280;73275;50.882;5.984;2024-01-11T04:29:03;101914.94;;;-6.72;85.10
83363;BME280;73275;50.882;5.984;2024-01-11T04:31:29;101913.69;;;-6.70;85.17
83363;BME280;73275;50.882;5.984;2024-01-11T04:34:03;101918.75;;;-6.75;85.21
83363;BME280;73275;50.882;5.984;2024-01-11T04:36:39;101926.88;;;-6.71;85.18
83363;BME280;73275;50.882;5.984;2024-01-11T04:39:17;101912.25;;;-6.66;84.84
83363;BME280;73275;50.882;5.984;2024-01-11T04:41:55;101920.38;;;-6.62;84.80
83363;BME280;73275;50.882;5.984;2024-01-11T04:44:23;101920.47;;;-6.69;84.98
83363;BME280;73275;50.882;5.984;2024-01-11T04:46:49;101921.16;;;-6.62;84.74
83363;BME280;73275;50.882;5.984;2024-01-11T04:49:23;101920.38;;;-6.62;85.04
83363;BME280;73275;50.882;5.984;2024-01-11T04:51:55;101926.13;;;-6.60;84.95
83363;BME280;73275;50.882;5.984;2024-01-11T04:54:36;101929.72;;;-6.61;85.65
83363;BME280;73275;50.882;5.984;2024-01-11T04:57:17;101919.91;;;-6.59;85.69
83363;BME280;73275;50.882;5.984;2024-01-11T04:59:56;101930.53;;;-6.61;85.42
83363;BME280;73275;50.882;5.984;2024-01-11T05:02:27;101924.00;;;-6.63;85.94
83363;BME280;73275;50.882;5.984;2024-01-11T05:07:30;101939.53;;;-6.63;85.95
83363;BME280;73275;50.882;5.984;2024-01-11T05:10:00;101928.56;;;-6.65;85.85
83363;BME280;73275;50.882;5.984;2024-01-11T05:12:39;101923.19;;;-6.64;85.72
83363;BME280;73275;50.882;5.984;2024-01-11T05:15:08;101928.78;;;-6.67;86.18
83363;BME280;73275;50.882;5.984;2024-01-11T05:17:36;101939.53;;;-6.63;85.99
83363;BME280;73275;50.882;5.984;2024-01-11T05:20:02;101935.00;;;-6.68;85.97
83363;BME280;73275;50.882;5.984;2024-01-11T05:22:34;101942.97;;;-6.69;86.15
83363;BME280;73275;50.882;5.984;2024-01-11T05:25:06;101950.31;;;-6.66;86.12
83363;BME280;73275;50.882;5.984;2024-01-11T05:27:37;101964.28;;;-6.67;86.50
83363;BME280;73275;50.882;5.984;2024-01-11T05:30:08;101959.41;;;-6.75;86.24
83363;BME280;73275;50.882;5.984;2024-01-11T05:32:54;101974.31;;;-6.71;86.23
83363;BME280;73275;50.882;5.984;2024-01-11T05:35:26;101972.28;;;-6.69;86.46
83363;BME280;73275;50.882;5.984;2024-01-11T05:38:12;101968.19;;;-6.76;86.22
83363;BME280;73275;50.882;5.984;2024-01-11T05:40:53;101978.91;;;-6.73;86.54
83363;BME280;73275;50.882;5.984;2024-01-11T05:43:23;101979.91;;;-6.74;86.34
83363;BME280;73275;50.882;5.984;2024-01-11T05:46:06;101982.66;;;-6.69;86.49
83363;BME280;73275;50.882;5.984;2024-01-11T05:48:35;101981.41;;;-6.66;86.16
83363;BME280;73275;50.882;5.984;2024-01-11T05:51:21;101984.31;;;-6.74;86.16
83363;BME280;73275;50.882;5.984;2024-01-11T05:53:49;101981.06;;;-6.70;86.19
83363;BME280;73275;50.882;5.984;2024-01-11T05:56:22;101995.91;;;-6.77;86.25
83363;BME280;73275;50.882;5.984;2024-01-11T06:01:45;101997.91;;;-6.79;86.61
83363;BME280;73275;50.882;5.984;2024-01-11T06:04:26;102001.44;;;-6.73;86.47
83363;BME280;73275;50.882;5.984;2024-01-11T06:07:12;101998.72;;;-6.78;86.48
83363;BME280;73275;50.882;5.984;2024-01-11T06:09:45;101991.22;;;-6.68;86.72
83363;BME280;73275;50.882;5.984;2024-01-11T06:12:14;101994.88;;;-6.58;86.06
83363;BME280;73275;50.882;5.984;2024-01-11T06:14:41;101997.81;;;-6.54;85.79
83363;BME280;73275;50.882;5.984;2024-01-11T06:17:57;102008.13;;;-6.66;86.07
83363;BME280;73275;50.882;5.984;2024-01-11T06:20:53;102005.75;;;-6.67;86.43
83363;BME280;73275;50.882;5.984;2024-01-11T06:23:24;102014.31;;;-6.67;85.95
83363;BME280;73275;50.882;5.984;2024-01-11T06:26:02;102006.66;;;-6.62;85.83
83363;BME280;73275;50.882;5.984;2024-01-11T06:28:28;102010.22;;;-6.56;85.39
83363;BME280;73275;50.882;5.984;2024-01-11T06:30:54;102015.94;;;-6.54;85.18
83363;BME280;73275;50.882;5.984;2024-01-11T06:33:44;102010.50;;;-6.64;85.62
83363;BME280;73275;50.882;5.984;2024-01-11T06:36:16;102007.91;;;-6.64;85.34
83363;BME280;73275;50.882;5.984;2024-01-11T06:38:52;102022.97;;;-6.55;85.72
83363;BME280;73275;50.882;5.984;2024-01-11T06:43:54;102032.75;;;-6.75;85.91
83363;BME280;73275;50.882;5.984;2024-01-11T06:46:23;102034.63;;;-6.82;86.61
83363;BME280;73275;50.882;5.984;2024-01-11T06:48:52;102038.50;;;-6.91;86.82
83363;BME280;73275;50.882;5.984;2024-01-11T06:51:23;102033.59;;;-6.99;86.92
83363;BME280;73275;50.882;5.984;2024-01-11T06:54:24;102027.84;;;-7.01;87.00
83363;BME280;73275;50.882;5.984;2024-01-11T06:57:01;102024.59;;;-6.96;86.97
83363;BME280;73275;50.882;5.984;2024-01-11T06:59:32;102028.66;;;-6.82;86.49
83363;BME280;73275;50.882;5.984;2024-01-11T07:02:15;102018.44;;;-6.95;86.62
83363;BME280;73275;50.882;5.984;2024-01-11T07:04:44;102033.03;;;-6.83;86.53
83363;BME280;73275;50.882;5.984;2024-01-11T07:07:15;102037.63;;;-6.85;86.27
83363;BME280;73275;50.882;5.984;2024-01-11T07:09:46;102036.19;;;-6.99;86.60
83363;BME280;73275;50.882;5.984;2024-01-11T07:12:17;102031.66;;;-7.03;87.01
83363;BME280;73275;50.882;5.984;2024-01-11T07:14:53;102026.84;;;-7.00;87.37
83363;BME280;73275;50.882;5.984;2024-01-11T07:17:39;102041.44;;;-6.87;86.85
83363;BME280;73275;50.882;5.984;2024-01-11T07:20:05;102028.34;;;-6.92;86.55
83363;BME280;73275;50.882;5.984;2024-01-11T07:22:42;102037.69;;;-6.91;86.43
83363;BME280;73275;50.882;5.984;2024-01-11T07:25:08;102028.09;;;-6.84;86.46
83363;BME280;73275;50.882;5.984;2024-01-11T07:27:34;102033.16;;;-6.78;86.14
83363;BME280;73275;50.882;5.984;2024-01-11T07:30:02;102041.22;;;-6.68;86.00
83363;BME280;73275;50.882;5.984;2024-01-11T07:32:34;102031.38;;;-6.77;85.84
83363;BME280;73275;50.882;5.984;2024-01-11T07:34:59;102023.75;;;-6.72;85.52
83363;BME280;73275;50.882;5.984;2024-01-11T07:37:31;102018.78;;;-6.74;85.80
83363;BME280;73275;50.882;5.984;2024-01-11T07:39:59;102028.22;;;-6.79;86.13
83363;BME280;73275;50.882;5.984;2024-01-11T07:42:33;102028.22;;;-6.79;86.49
83363;BME280;73275;50.882;5.984;2024-01-11T07:45:07;102027.91;;;-6.71;86.47
83363;BME280;73275;50.882;5.984;2024-01-11T07:47:45;102020.09;;;-6.65;86.11
83363;BME280;73275;50.882;5.984;2024-01-11T07:50:21;102026.41;;;-6.61;85.81
83363;BME280;73275;50.882;5.984;2024-01-11T07:53:00;102026.56;;;-6.56;85.88
83363;BME280;73275;50.882;5.984;2024-01-11T07:55:26;102035.03;;;-6.67;85.61
83363;BME280;73275;50.882;5.984;2024-01-11T07:57:54;102029.81;;;-6.78;85.45
83363;BME280;73275;50.882;5.984;2024-01-11T08:00:23;102041.91;;;-6.90;85.96
83363;BME280;73275;50.882;5.984;2024-01-11T08:03:00;102049.66;;;-6.90;86.29
83363;BME280;73275;50.882;5.984;2024-01-11T08:05:28;102047.44;;;-6.87;86.25
83363;BME280;73275;50.882;5.984;2024-01-11T08:07:54;102043.53;;;-6.78;86.04
83363;BME280;73275;50.882;5.984;2024-01-11T08:10:29;102052.97;;;-6.65;85.82
83363;BME280;73275;50.882;5.984;2024-01-11T08:23:28;102075.03;;;-6.99;86.71
83363;BME280;73275;50.882;5.984;2024-01-11T08:26:02;102078.63;;;-7.00;86.71
83363;BME280;73275;50.882;5.984;2024-01-11T08:31:50;102076.63;;;-6.98;86.48
83363;BME280;73275;50.882;5.984;2024-01-11T08:34:29;102070.00;;;-6.94;86.14
83363;BME280;73275;50.882;5.984;2024-01-11T08:36:55;102066.44;;;-6.93;86.50
83363;BME280;73275;50.882;5.984;2024-01-11T08:42:49;102057.66;;;-6.74;86.12
83363;BME280;73275;50.882;5.984;2024-01-11T08:45:25;102061.66;;;-6.78;86.18
83363;BME280;73275;50.882;5.984;2024-01-11T08:47:56;102057.53;;;-6.61;86.07
83363;BME280;73275;50.882;5.984;2024-01-11T08:50:22;102060.66;;;-6.41;85.30
83363;BME280;73275;50.882;5.984;2024-01-11T08:52:50;102053.00;;;-6.36;84.93
83363;BME280;73275;50.882;5.984;2024-01-11T08:55:19;102052.09;;;-6.41;84.54
83363;BME280;73275;50.882;5.984;2024-01-11T08:57:47;102038.13;;;-6.40;84.90
83363;BME280;73275;50.882;5.984;2024-01-11T09:00:15;102055.66;;;-6.24;84.46
83363;BME280;73275;50.882;5.984;2024-01-11T09:02:44;102054.03;;;-6.07;84.27
83363;BME280;73275;50.882;5.984;2024-01-11T09:05:09;102057.31;;;-6.12;83.94
83363;BME280;73275;50.882;5.984;2024-01-11T09:07:35;102058.06;;;-6.11;83.92
83363;BME280;73275;50.882;5.984;2024-01-11T09:10:04;102061.06;;;-5.96;83.80
83363;BME280;73275;50.882;5.984;2024-01-11T09:12:30;102058.72;;;-5.86;83.25
83363;BME280;73275;50.882;5.984;2024-01-11T09:21:50;102059.97;;;-5.89;82.75
83363;BME280;73275;50.882;5.984;2024-01-11T09:24:20;102057.59;;;-5.79;83.16
83363;BME280;73275;50.882;5.984;2024-01-11T09:26:53;102064.84;;;-5.81;82.27
83363;BME280;73275;50.882;5.984;2024-01-11T09:29:21;102068.66;;;-5.72;82.48
83363;BME280;73275;50.882;5.984;2024-01-11T09:31:50;102070.38;;;-5.77;82.65
83363;BME280;73275;50.882;5.984;2024-01-11T09:34:15;102074.88;;;-5.73;82.47
83363;BME280;73275;50.882;5.984;2024-01-11T09:36:41;102077.69;;;-5.74;82.21
83363;BME280;73275;50.882;5.984;2024-01-11T09:39:09;102088.09;;;-5.63;82.10
83363;BME280;73275;50.882;5.984;2024-01-11T09:41:44;102087.56;;;-5.53;82.80
83363;BME280;73275;50.882;5.984;2024-01-11T09:44:21;102100.22;;;-5.45;82.10
83363;BME280;73275;50.882;5.984;2024-01-11T09:47:20;102096.28;;;-5.36;82.00
83363;BME280;73275;50.882;5.984;2024-01-11T09:49:48;102083.53;;;-5.38;81.66
83363;BME280;73275;50.882;5.984;2024-01-11T09:55:58;102082.41;;;-5.19;81.60
83363;BME280;73275;50.882;5.984;2024-01-11T09:58:27;102093.50;;;-5.12;80.88
83363;BME280;73275;50.882;5.984;2024-01-11T10:01:04;102100.94;;;-5.15;81.18
83363;BME280;73275;50.882;5.984;2024-01-11T10:03:39;102103.91;;;-5.12;81.53
83363;BME280;73275;50.882;5.984;2024-01-11T10:07:01;102088.28;;;-5.00;81.05
83363;BME280;73275;50.882;5.984;2024-01-11T10:19:23;102105.69;;;-4.66;80.49
83363;BME280;73275;50.882;5.984;2024-01-11T10:21:52;102110.84;;;-4.55;80.12
83363;BME280;73275;50.882;5.984;2024-01-11T10:24:34;102107.75;;;-4.29;79.28
83363;BME280;73275;50.882;5.984;2024-01-11T10:27:03;102109.66;;;-4.24;78.56
83363;BME280;73275;50.882;5.984;2024-01-11T10:30:10;102099.78;;;-4.11;77.96
83363;BME280;73275;50.882;5.984;2024-01-11T10:35:51;102106.09;;;-4.07;77.93
83363;BME280;73275;50.882;5.984;2024-01-11T10:38:24;102111.09;;;-4.17;78.19
83363;BME280;73275;50.882;5.984;2024-01-11T10:40:58;102116.94;;;-3.98;78.55
83363;BME280;73275;50.882;5.984;2024-01-11T10:43:39;102122.63;;;-4.01;78.01
83363;BME280;73275;50.882;5.984;2024-01-11T10:46:09;102111.69;;;-3.87;78.25
83363;BME280;73275;50.882;5.984;2024-01-11T10:48:47;102108.50;;;-3.61;76.98
83363;BME280;73275;50.882;5.984;2024-01-11T10:51:24;102112.47;;;-3.58;76.65
83363;BME280;73275;50.882;5.984;2024-01-11T10:54:01;102111.75;;;-3.54;76.19
83363;BME280;73275;50.882;5.984;2024-01-11T10:56:39;102105.28;;;-3.68;76.51
83363;BME280;73275;50.882;5.984;2024-01-11T10:59:15;102097.47;;;-3.51;76.78
83363;BME280;73275;50.882;5.984;2024-01-11T11:09:14;102103.06;;;-2.55;72.96
83363;BME280;73275;50.882;5.984;2024-01-11T11:11:40;102115.56;;;-2.57;72.87
83363;BME280;73275;50.882;5.984;2024-01-11T11:14:09;102122.44;;;-2.51;73.23
83363;BME280;73275;50.882;5.984;2024-01-11T11:16:59;102111.94;;;-2.13;72.30
83363;BME280;73275;50.882;5.984;2024-01-11T11:19:25;102108.06;;;-1.84;70.86
83363;BME280;73275;50.882;5.984;2024-01-11T11:21:53;102110.91;;;-1.33;69.45
83363;BME280;73275;50.882;5.984;2024-01-11T11:24:22;102119.69;;;-1.12;68.11
83363;BME280;73275;50.882;5.984;2024-01-11T11:27:04;102115.94;;;-0.90;67.55
83363;BME280;73275;50.882;5.984;2024-01-11T11:35:24;102126.75;;;-0.76;66.48
83363;BME280;73275;50.882;5.984;2024-01-11T11:37:56;102131.31;;;-0.98;66.59
83363;BME280;73275;50.882;5.984;2024-01-11T11:40:53;102116.09;;;-0.60;65.02
83363;BME280;73275;50.882;5.984;2024-01-11T11:43:31;102126.78;;;-0.15;64.09
83363;BME280;73275;50.882;5.984;2024-01-11T11:46:00;102126.44;;;-0.33;64.01
83363;BME280;73275;50.882;5.984;2024-01-11T11:53:39;102127.44;;;0.27;61.56
83363;BME280;73275;50.882;5.984;2024-01-11T11:56:25;102121.41;;;0.71;60.38
83363;BME280;73275;50.882;5.984;2024-01-11T11:58:56;102115.66;;;0.89;59.62
83363;BME280;73275;50.882;5.984;2024-01-11T12:01:25;102114.31;;;1.12;58.49
83363;BME280;73275;50.882;5.984;2024-01-11T12:04:15;102105.09;;;1.14;57.57
83363;BME280;73275;50.882;5.984;2024-01-11T12:09:35;102114.94;;;1.67;56.51
83363;BME280;73275;50.882;5.984;2024-01-11T12:12:20;102115.81;;;1.43;57.29
83363;BME280;73275;50.882;5.984;2024-01-11T12:14:47;102121.63;;;1.30;57.35
83363;BME280;73275;50.882;5.984;2024-01-11T12:17:46;102126.66;;;0.76;58.40
83363;BME280;73275;50.882;5.984;2024-01-11T12:20:17;102125.59;;;1.07;58.27
83363;BME280;73275;50.882;5.984;2024-01-11T12:22:52;102122.09;;;1.42;57.61
83363;BME280;73275;50.882;5.984;2024-01-11T12:25:49;102110.97;;;2.23;55.96
83363;BME280;73275;50.882;5.984;2024-01-11T12:28:17;102112.59;;;2.14;55.26
83363;BME280;73275;50.882;5.984;2024-01-11T12:30:52;102112.59;;;2.14;55.28
83363;BME280;73275;50.882;5.984;2024-01-11T12:33:23;102113.50;;;2.38;54.11
83363;BME280;73275;50.882;5.984;2024-01-11T12:35:56;102109.16;;;3.14;52.06
83363;BME280;73275;50.882;5.984;2024-01-11T12:39:06;102110.38;;;2.70;53.22
83363;BME280;73275;50.882;5.984;2024-01-11T12:41:34;102105.13;;;2.31;53.91
83363;BME280;73275;50.882;5.984;2024-01-11T12:44:26;102093.44;;;2.14;54.36
83363;BME280;73275;50.882;5.984;2024-01-11T12:47:16;102083.41;;;2.54;53.67
83363;BME280;73275;50.882;5.984;2024-01-11T12:49:49;102086.88;;;2.78;53.06
83363;BME280;73275;50.882;5.984;2024-01-11T12:52:21;102084.63;;;2.33;54.18
83363;BME280;73275;50.882;5.984;2024-01-11T12:54:54;102085.25;;;2.15;54.19
83363;BME280;73275;50.882;5.984;2024-01-11T12:57:28;102077.38;;;2.49;53.20
83363;BME280;73275;50.882;5.984;2024-01-11T12:59:54;102074.19;;;2.85;52.60
83363;BME280;73275;50.882;5.984;2024-01-11T13:02:24;102072.00;;;3.63;50.61
83363;BME280;73275;50.882;5.984;2024-01-11T13:05:13;102052.56;;;3.77;49.88
83363;BME280;73275;50.882;5.984;2024-01-11T13:13:30;102037.16;;;4.21;48.96
83363;BME280;73275;50.882;5.984;2024-01-11T13:16:07;102037.69;;;4.82;48.17
83363;BME280;73275;50.882;5.984;2024-01-11T13:18:54;102040.88;;;5.25;46.53
83363;BME280;73275;50.882;5.984;2024-01-11T13:36:58;102081.06;;;3.75;48.66
83363;BME280;73275;50.882;5.984;2024-01-11T13:39:24;102086.66;;;3.50;50.68
83363;BME280;73275;50.882;5.984;2024-01-11T13:49:03;102098.31;;;3.68;50.81
83363;BME280;73275;50.882;5.984;2024-01-11T13:57:39;102090.25;;;3.12;51.90
83363;BME280;73275;50.882;5.984;2024-01-11T14:00:19;102091.50;;;3.62;51.55
83363;BME280;73275;50.882;5.984;2024-01-11T14:06:16;102092.53;;;2.90;51.74
83363;BME280;73275;50.882;5.984;2024-01-11T14:08:42;102095.72;;;2.59;53.47
83363;BME280;73275;50.882;5.984;2024-01-11T14:11:28;102108.44;;;3.32;51.02
83363;BME280;73275;50.882;5.984;2024-01-11T14:14:04;102100.69;;;2.94;51.73
83363;BME280;73275;50.882;5.984;2024-01-11T14:16:38;102106.63;;;3.04;52.08
83363;BME280;73275;50.882;5.984;2024-01-11T14:19:08;102111.50;;;3.68;50.38
83363;BME280;73275;50.882;5.984;2024-01-11T14:21:44;102113.63;;;3.84;50.26
83363;BME280;73275;50.882;5.984;2024-01-11T14:24:17;102118.72;;;3.34;51.58
83363;BME280;73275;50.882;5.984;2024-01-11T14:26:45;102121.88;;;3.07;51.37
83363;BME280;73275;50.882;5.984;2024-01-11T14:29:18;102122.56;;;3.18;51.07
83363;BME280;73275;50.882;5.984;2024-01-11T14:31:44;102126.31;;;2.83;51.40
83363;BME280;73275;50.882;5.984;2024-01-11T14:34:10;102129.75;;;2.45;52.52
83363;BME280;73275;50.882;5.984;2024-01-11T14:40:33;102119.28;;;1.03;57.34
83363;BME280;73275;50.882;5.984;2024-01-11T14:45:51;102123.78;;;0.88;57.91
83363;BME280;73275;50.882;5.984;2024-01-11T14:51:56;102118.53;;;0.58;58.65
83363;BME280;73275;50.882;5.984;2024-01-11T14:54:30;102114.31;;;0.37;59.32
83363;BME280;73275;50.882;5.984;2024-01-11T14:57:18;102110.63;;;0.23;59.87
83363;BME280;73275;50.882;5.984;2024-01-11T14:59:49;102110.91;;;0.26;59.64
83363;BME280;73275;50.882;5.984;2024-01-11T15:02:15;102101.47;;;0.35;59.50
83363;BME280;73275;50.882;5.984;2024-01-11T15:04:44;102110.38;;;0.39;59.41
83363;BME280;73275;50.882;5.984;2024-01-11T15:07:25;102097.56;;;0.33;59.81
83363;BME280;73275;50.882;5.984;2024-01-11T15:09:56;102100.16;;;0.28;59.54
83363;BME280;73275;50.882;5.984;2024-01-11T15:32:52;102131.16;;;-0.31;62.77
83363;BME280;73275;50.882;5.984;2024-01-11T15:38:40;102134.16;;;-0.58;63.68
83363;BME280;73275;50.882;5.984;2024-01-11T15:41:13;102134.09;;;-0.68;64.05
83363;BME280;73275;50.882;5.984;2024-01-11T15:47:46;102143.28;;;-0.66;64.23
83363;BME280;73275;50.882;5.984;2024-01-11T15:53:51;102136.22;;;-0.09;63.57
83363;BME280;73275;50.882;5.984;2024-01-11T15:59:31;102128.88;;;-0.12;63.07